Airfield :
LOGIN :

Register | Disclaimer

   EN    FR    IT 

 










Legend :    VFR   Marginal VFR   IFR   Intensive IFR   Very Intensive IFR
Visi :
Ceiling :
>= 8 km
>= 3000ft
5 to 8 km
1000 to 3000 ft
1500m to 5 km
500 to 1000 ft
800 to 1500m
200 to 500 ft
< 800m
< 200 ft
Symbols :   Thunderstorms  Fog  Heavy snow  Heavy precipitations  Wind > 20 kt
SIGMETs :     Misc.  Thunderstorms  Icing  Turbulence  Mountain Waves  Volcanic Ashes






- Airport Elevation : -15 ft
- IATA code : RTM


EHRD - Rotterdam Zestienhoven

CURRENT METAR :
  • 262325Z AUTO 20013KT 150V230 9999 DZ FEW022 SCT027 03/00 Q1015 NOSIG

EXPIRED METARs :
  • 262255Z AUTO 20015KT 120V240 9999 +DZRA FEW020 BKN026 BKN029 03/00 Q1015 NOSIG
  • 262225Z AUTO 20012KT 160V220 9999 DZ FEW033 03/M00 Q1015 NOSIG
  • 262155Z AUTO 19011KT 160V220 9999 FEW045 03/00 Q1015 NOSIG
  • 262125Z AUTO 19009KT 160V220 9999 NSC 03/01 Q1016 NOSIG

TAF TAF EHRD
Valid from the 27 at 00:00 until the 28 at 06:00 UTC


262316Z 2700/2806 19014KT 9999 SCT040
BECMG 2700/2703 4500 -RASN -RA BKN014
PROB40
TEMPO 2701/2704 2500 -SNRA BKN008
BECMG 2704/2707 4500 BR -DZ SCT003 BKN004
PROB40
TEMPO 2705/2710 2000 DZ
BECMG 2708/2711 28012KT 9999 NSW BKN015
PROB30
TEMPO 2711/2806 5000 -RADZ BKN008
BECMG 2717/2720 30005KT
BECMG 2803/2806 10005KT 4000 RA



MET'MAP, your aeronautical weather chart ! - Copyright ORBIFLY December 2007 - Disclaimer

ORBIFLY MET'MAP TEAM :

Programming & Development : Alexandra Zaïnal
Concept & original design : Baudouin d'Aumeries
Assistance for programming : Marc-Olivier Méhu
Technical & hardware support : Manuel Goepfert

Contact : metmap@orbifly.com




SOURCES & CREDITS :

   NOAA